Ashland, Wisconsin
Current Conditions -  °F | °C
As of 12:53 AM on Thursday 27 Nov 2014 (Local Time) from KASX Reporting Station
Overcast Overcast  
Wind Chill: -20°   Ceiling: 2000
Heat Index: -14°   Visibility: 10mi
Dew Point: -17°   Wind: 7mph
Humidity: 80%   Direction: 290°WNW
Pressure: 30.38"   Gusts: NA
Location:  46.59°N, 90.89°W
Report Text: KASX 270653Z AUTO 29006KT 10SM FEW008 FEW014 OVC020 M14/M17 A3038 RMK AO2 SLP307 T11391167
Loading
Personal Weather Stations






























Interactive Weather Map New forecast layout! Learn more

10-Day Weather Forecast

Advertisements
Track Severe Weather on mobile